createdAt,value
2019-02-02T00:00:50.049Z,0
2019-02-02T00:01:50.027Z,0
2019-02-02T00:02:50.146Z,0
2019-02-02T00:03:50.005Z,0
2019-02-02T00:04:49.982Z,0
2019-02-02T00:05:49.964Z,0
2019-02-02T00:06:49.950Z,0
2019-02-02T00:07:49.938Z,0
2019-02-02T00:08:49.913Z,0
2019-02-02T00:09:49.899Z,0
2019-02-02T00:10:49.884Z,0
2019-02-02T00:11:49.868Z,0
2019-02-02T00:12:49.852Z,0
2019-02-02T00:13:49.838Z,0
2019-02-02T00:14:52.443Z,0
2019-02-02T00:15:49.809Z,0
2019-02-02T00:16:49.792Z,0
2019-02-02T00:17:49.776Z,0
2019-02-02T00:18:49.756Z,0
2019-02-02T00:19:49.741Z,0
2019-02-02T00:20:49.723Z,0
2019-02-02T00:21:49.713Z,0
2019-02-02T00:22:49.690Z,0
2019-02-02T00:23:49.672Z,0
2019-02-02T00:24:49.667Z,0
2019-02-02T00:25:49.639Z,0
2019-02-02T00:26:49.625Z,0
2019-02-02T00:27:49.618Z,0
2019-02-02T00:28:49.597Z,0
2019-02-02T00:29:49.575Z,0
2019-02-02T00:30:49.561Z,0
2019-02-02T00:31:49.542Z,0
2019-02-02T00:32:49.701Z,0
2019-02-02T00:33:49.518Z,0
2019-02-02T00:34:49.507Z,0
2019-02-02T00:35:49.475Z,0
2019-02-02T00:36:49.458Z,0
2019-02-02T00:37:49.449Z,0
2019-02-02T00:38:49.438Z,0
2019-02-02T00:39:49.411Z,0
2019-02-02T00:40:49.395Z,0
2019-02-02T00:41:49.379Z,0
2019-02-02T00:42:49.367Z,0
2019-02-02T00:43:49.348Z,0
2019-02-02T00:44:49.328Z,0
2019-02-02T00:45:49.312Z,0
2019-02-02T00:46:49.308Z,0
2019-02-02T00:47:49.282Z,0
2019-02-02T00:48:49.020Z,0
2019-02-02T00:49:49.008Z,0
2019-02-02T00:50:49.234Z,0
2019-02-02T00:51:49.216Z,0
2019-02-02T00:52:49.199Z,0
2019-02-02T00:53:49.188Z,0
2019-02-02T00:54:49.176Z,0
2019-02-02T00:55:49.149Z,0
2019-02-02T00:56:49.140Z,0
2019-02-02T00:58:00.140Z,0
2019-02-02T00:58:49.113Z,0
2019-02-02T00:59:49.106Z,0
2019-02-02T01:00:49.068Z,0
2019-02-02T01:01:49.053Z,0
2019-02-02T01:02:49.057Z,0
2019-02-02T01:03:49.018Z,0
2019-02-02T01:04:48.758Z,0
2019-02-02T01:05:48.982Z,0
2019-02-02T01:06:48.989Z,0
2019-02-02T01:07:48.952Z,0
2019-02-02T01:08:48.948Z,0
2019-02-02T01:09:48.918Z,0
2019-02-02T01:10:48.908Z,0
2019-02-02T01:11:48.882Z,0
2019-02-02T01:12:48.866Z,0
2019-02-02T01:13:49.101Z,0
2019-02-02T01:14:48.838Z,0
2019-02-02T01:15:48.818Z,0
2019-02-02T01:16:48.815Z,0
2019-02-02T01:17:48.784Z,0
2019-02-02T01:18:48.770Z,0
2019-02-02T01:19:48.765Z,0
2019-02-02T01:20:48.740Z,0
2019-02-02T01:21:48.720Z,0
2019-02-02T01:22:48.705Z,0
2019-02-02T01:23:48.696Z,0
2019-02-02T01:24:48.675Z,0
2019-02-02T01:25:48.654Z,0
2019-02-02T01:26:48.636Z,0
2019-02-02T01:27:48.619Z,0
2019-02-02T01:28:48.626Z,0
2019-02-02T01:29:48.614Z,0
2019-02-02T01:30:48.574Z,0
2019-02-02T01:31:48.551Z,0
2019-02-02T01:32:48.296Z,0
2019-02-02T01:33:48.532Z,0
2019-02-02T01:34:48.512Z,0
2019-02-02T01:35:48.493Z,0
2019-02-02T01:36:48.485Z,0
2019-02-02T01:37:48.459Z,0
2019-02-02T01:38:48.447Z,0
2019-02-02T01:39:48.424Z,0
2019-02-02T01:40:48.409Z,0
2019-02-02T01:41:48.475Z,0
2019-02-02T01:42:48.391Z,0
2019-02-02T01:43:48.359Z,0
2019-02-02T01:44:48.342Z,0
2019-02-02T01:45:48.334Z,0
2019-02-02T01:46:48.312Z,0
2019-02-02T01:47:48.294Z,0
2019-02-02T01:48:48.274Z,0
2019-02-02T01:49:48.272Z,0
2019-02-02T01:50:48.004Z,0
2019-02-02T01:51:48.229Z,0
2019-02-02T01:52:48.213Z,0
2019-02-02T01:53:48.190Z,0
2019-02-02T01:54:48.175Z,0
2019-02-02T01:55:48.279Z,0
2019-02-02T01:56:48.143Z,0
2019-02-02T01:57:48.133Z,0
2019-02-02T01:58:48.110Z,0
2019-02-02T01:59:48.094Z,0
2019-02-02T02:00:48.079Z,0
2019-02-02T02:01:48.947Z,0
2019-02-02T02:02:48.051Z,0
2019-02-02T02:03:48.030Z,0
2019-02-02T02:04:48.032Z,0
2019-02-02T02:05:47.997Z,0
2019-02-02T02:06:48.107Z,0
2019-02-02T02:07:48.059Z,0
2019-02-02T02:08:47.990Z,0
2019-02-02T02:09:47.931Z,0
2019-02-02T02:10:47.917Z,0
2019-02-02T02:11:47.910Z,0
2019-02-02T02:12:47.887Z,0
2019-02-02T02:13:47.871Z,0
2019-02-02T02:14:47.854Z,0
2019-02-02T02:15:47.834Z,0
2019-02-02T02:16:47.821Z,0
2019-02-02T02:17:47.799Z,0
2019-02-02T02:18:47.800Z,0
2019-02-02T02:19:47.769Z,0
2019-02-02T02:20:47.752Z,0
2019-02-02T02:21:47.732Z,0
2019-02-02T02:22:48.665Z,0
2019-02-02T02:23:47.701Z,0
2019-02-02T02:24:47.752Z,0
2019-02-02T02:25:47.664Z,0
2019-02-02T02:26:47.653Z,0
2019-02-02T02:27:47.654Z,0
2019-02-02T02:28:47.612Z,0
2019-02-02T02:29:47.598Z,0
2019-02-02T02:30:50.009Z,0
2019-02-02T02:31:47.592Z,0
2019-02-02T02:32:47.589Z,0
2019-02-02T02:33:47.540Z,0
2019-02-02T02:34:47.529Z,0
2019-02-02T02:35:47.518Z,0
2019-02-02T02:36:47.483Z,0
2019-02-02T02:37:47.467Z,0
2019-02-02T02:38:47.452Z,0
2019-02-02T02:39:47.438Z,0
2019-02-02T02:40:47.424Z,0
2019-02-02T02:41:47.400Z,0
2019-02-02T02:42:47.385Z,0
2019-02-02T02:43:47.368Z,0
2019-02-02T02:44:47.353Z,0
2019-02-02T02:45:47.350Z,0
2019-02-02T02:46:47.326Z,0
2019-02-02T02:47:47.301Z,0
2019-02-02T02:48:47.288Z,0
2019-02-02T02:49:47.290Z,0
2019-02-02T02:50:47.252Z,0
2019-02-02T02:51:47.240Z,0
2019-02-02T02:52:47.220Z,0
2019-02-02T02:53:47.201Z,0
2019-02-02T02:54:47.188Z,0
2019-02-02T02:55:47.187Z,0
2019-02-02T02:56:47.339Z,0
2019-02-02T02:57:47.132Z,0
2019-02-02T02:58:48.959Z,0
2019-02-02T02:59:47.114Z,0
2019-02-02T03:00:47.088Z,0
2019-02-02T03:01:47.067Z,0
2019-02-02T03:02:47.054Z,0
2019-02-02T03:03:47.052Z,0
2019-02-02T03:04:47.017Z,0
2019-02-02T03:05:47.007Z,0
2019-02-02T03:06:46.993Z,0
2019-02-02T03:07:47.033Z,0
2019-02-02T03:08:46.953Z,0
2019-02-02T03:09:46.940Z,0
2019-02-02T03:10:46.925Z,0
2019-02-02T03:11:46.913Z,0
2019-02-02T03:12:46.884Z,0
2019-02-02T03:13:46.876Z,0
2019-02-02T03:14:46.862Z,0
2019-02-02T03:15:46.857Z,0
2019-02-02T03:16:46.823Z,0
2019-02-02T03:17:46.922Z,0
2019-02-02T03:18:46.791Z,0
2019-02-02T03:19:46.771Z,0
2019-02-02T03:20:46.752Z,0
2019-02-02T03:21:48.732Z,0
2019-02-02T03:22:46.733Z,0
2019-02-02T03:23:46.710Z,0
2019-02-02T03:24:46.690Z,0
2019-02-02T03:25:46.679Z,0
2019-02-02T03:26:46.671Z,0
2019-02-02T03:27:46.633Z,0
2019-02-02T03:28:57.840Z,0
2019-02-02T03:29:46.630Z,0
2019-02-02T03:30:46.620Z,0
2019-02-02T03:31:50.957Z,0
2019-02-02T03:32:46.608Z,0
2019-02-02T03:33:46.545Z,0
2019-02-02T03:34:46.516Z,0
2019-02-02T03:35:46.512Z,0
2019-02-02T03:36:46.677Z,0
2019-02-02T03:37:46.478Z,0
2019-02-02T03:38:46.459Z,0
2019-02-02T03:39:46.444Z,0
2019-02-02T03:40:46.424Z,0
2019-02-02T03:41:46.397Z,0
2019-02-02T03:42:46.382Z,0
2019-02-02T03:43:46.381Z,0
2019-02-02T03:44:46.355Z,0
2019-02-02T03:45:48.087Z,0
2019-02-02T03:46:46.398Z,0
2019-02-02T03:47:46.325Z,0
2019-02-02T03:48:46.291Z,0
2019-02-02T03:49:46.270Z,0
2019-02-02T03:50:46.249Z,0
2019-02-02T03:51:46.243Z,0
2019-02-02T03:52:46.230Z,0
2019-02-02T03:53:48.561Z,0
2019-02-02T03:54:46.192Z,0
2019-02-02T03:55:46.175Z,0
2019-02-02T03:56:46.160Z,0
2019-02-02T03:57:46.142Z,0
2019-02-02T03:58:46.123Z,0
2019-02-02T03:59:46.190Z,0
2019-02-02T04:00:46.084Z,0
2019-02-02T04:01:45.837Z,0
2019-02-02T04:02:46.051Z,0
2019-02-02T04:03:46.230Z,0
2019-02-02T04:04:46.025Z,0
2019-02-02T04:05:46.004Z,0
2019-02-02T04:06:45.987Z,0
2019-02-02T04:07:46.122Z,0
2019-02-02T04:08:45.962Z,0
2019-02-02T04:09:45.942Z,0
2019-02-02T04:10:45.924Z,0
2019-02-02T04:11:48.215Z,0
2019-02-02T04:12:45.901Z,0
2019-02-02T04:13:45.875Z,0
2019-02-02T04:14:45.853Z,0
2019-02-02T04:15:45.843Z,0
2019-02-02T04:16:45.827Z,0
2019-02-02T04:17:45.810Z,0
2019-02-02T04:18:45.785Z,0
2019-02-02T04:19:45.788Z,0
2019-02-02T04:20:45.757Z,0
2019-02-02T04:21:45.740Z,0
2019-02-02T04:22:45.730Z,0
2019-02-02T04:23:45.705Z,0
2019-02-02T04:24:45.694Z,0
2019-02-02T04:25:45.671Z,0
2019-02-02T04:26:45.651Z,0
2019-02-02T04:27:45.642Z,0
2019-02-02T04:28:45.628Z,0
2019-02-02T04:29:45.605Z,0
2019-02-02T04:30:45.593Z,0
2019-02-02T04:31:45.576Z,0
2019-02-02T04:32:45.328Z,0
2019-02-02T04:33:45.547Z,0
2019-02-02T04:34:45.278Z,0
2019-02-02T04:35:45.516Z,0
2019-02-02T04:36:45.494Z,0
2019-02-02T04:37:45.616Z,0
2019-02-02T04:38:45.460Z,0
2019-02-02T04:39:45.497Z,0
2019-02-02T04:40:45.427Z,0
2019-02-02T04:41:45.412Z,0
2019-02-02T04:42:45.392Z,0
2019-02-02T04:43:45.508Z,0
2019-02-02T04:44:45.360Z,0
2019-02-02T04:45:45.345Z,0
2019-02-02T04:46:45.327Z,0
2019-02-02T04:47:45.478Z,0
2019-02-02T04:48:45.299Z,0
2019-02-02T04:49:45.335Z,0
2019-02-02T04:50:45.269Z,0
2019-02-02T04:51:45.249Z,0
2019-02-02T04:52:45.229Z,0
2019-02-02T04:53:45.212Z,0
2019-02-02T04:54:45.197Z,0
2019-02-02T04:55:45.192Z,0
2019-02-02T04:56:45.168Z,0
2019-02-02T04:57:45.156Z,0
2019-02-02T04:58:45.131Z,0
2019-02-02T04:59:45.114Z,0
2019-02-02T05:00:45.097Z,0
2019-02-02T05:01:45.083Z,0
2019-02-02T05:02:45.103Z,0
2019-02-02T05:03:45.053Z,0
2019-02-02T05:04:45.035Z,0
2019-02-02T05:05:45.036Z,0
2019-02-02T05:06:45.014Z,0
2019-02-02T05:07:44.993Z,0
2019-02-02T05:08:44.972Z,0
2019-02-02T05:09:44.956Z,0
2019-02-02T05:10:44.938Z,0
2019-02-02T05:11:44.926Z,0
2019-02-02T05:12:44.904Z,0
2019-02-02T05:13:44.890Z,0
2019-02-02T05:14:44.875Z,0
2019-02-02T05:15:44.862Z,0
2019-02-02T05:16:44.844Z,0
2019-02-02T05:17:44.824Z,0
2019-02-02T05:18:44.806Z,0
2019-02-02T05:19:44.795Z,0
2019-02-02T05:20:44.774Z,0
2019-02-02T05:21:44.777Z,0
2019-02-02T05:22:44.746Z,0
2019-02-02T05:23:45.033Z,0
2019-02-02T05:24:44.709Z,0
2019-02-02T05:25:44.693Z,0
2019-02-02T05:26:44.679Z,0
2019-02-02T05:27:44.663Z,0
2019-02-02T05:28:44.644Z,0
2019-02-02T05:29:48.812Z,0
2019-02-02T05:30:44.620Z,0
2019-02-02T05:31:44.605Z,0
2019-02-02T05:32:44.588Z,0
2019-02-02T05:33:44.565Z,0
2019-02-02T05:34:44.553Z,0
2019-02-02T05:35:44.536Z,0
2019-02-02T05:36:44.522Z,0
2019-02-02T05:37:44.499Z,0
2019-02-02T05:38:44.503Z,0
2019-02-02T05:39:44.577Z,0
2019-02-02T05:40:44.450Z,0
2019-02-02T05:41:44.434Z,0
2019-02-02T05:42:44.446Z,0
2019-02-02T05:43:44.442Z,0
2019-02-02T05:44:44.388Z,0
2019-02-02T05:45:44.481Z,0
2019-02-02T05:46:44.356Z,0
2019-02-02T05:47:44.340Z,0
2019-02-02T05:48:44.323Z,0
2019-02-02T05:49:44.300Z,0
2019-02-02T05:50:44.294Z,0
2019-02-02T05:51:44.275Z,0
2019-02-02T05:52:44.264Z,0
2019-02-02T05:53:44.241Z,0
2019-02-02T05:54:44.238Z,0
2019-02-02T05:55:44.229Z,0
2019-02-02T05:56:44.193Z,0
2019-02-02T05:57:44.176Z,0
2019-02-02T05:58:44.157Z,0
2019-02-02T05:59:54.910Z,0
2019-02-02T06:00:44.126Z,0
2019-02-02T06:01:44.109Z,0
2019-02-02T06:02:44.100Z,0
2019-02-02T06:03:44.141Z,0
2019-02-02T06:04:44.060Z,0
2019-02-02T06:05:44.049Z,0
2019-02-02T06:06:44.041Z,0
2019-02-02T06:07:44.013Z,0
2019-02-02T06:08:43.994Z,0
2019-02-02T06:09:43.745Z,0
2019-02-02T06:10:43.972Z,0
2019-02-02T06:11:43.946Z,0
2019-02-02T06:12:43.930Z,0
2019-02-02T06:13:43.914Z,0
2019-02-02T06:14:43.898Z,0
2019-02-02T06:15:43.883Z,0
2019-02-02T06:16:43.873Z,0
2019-02-02T06:17:43.857Z,0
2019-02-02T06:18:43.831Z,0
2019-02-02T06:19:43.816Z,0
2019-02-02T06:20:43.801Z,0
2019-02-02T06:21:43.782Z,0
2019-02-02T06:22:43.773Z,4
2019-02-02T06:23:43.751Z,4
2019-02-02T06:24:43.734Z,0
2019-02-02T06:25:43.729Z,4
2019-02-02T06:26:43.708Z,4
2019-02-02T06:27:43.691Z,8
2019-02-02T06:28:43.673Z,4
2019-02-02T06:29:43.656Z,8
2019-02-02T06:30:43.636Z,8
2019-02-02T06:31:43.623Z,8
2019-02-02T06:32:43.612Z,8
2019-02-02T06:33:43.590Z,8
2019-02-02T06:34:43.575Z,12
2019-02-02T06:35:43.567Z,16
2019-02-02T06:36:43.547Z,16
2019-02-02T06:37:43.543Z,20
2019-02-02T06:38:43.507Z,20
2019-02-02T06:39:43.498Z,20
2019-02-02T06:40:43.479Z,20
2019-02-02T06:41:43.461Z,24
2019-02-02T06:42:43.466Z,24
2019-02-02T06:43:43.503Z,28
2019-02-02T06:44:43.414Z,32
2019-02-02T06:45:43.400Z,32
2019-02-02T06:46:50.691Z,36
2019-02-02T06:47:43.374Z,36
2019-02-02T06:48:43.351Z,36
2019-02-02T06:49:43.336Z,40
2019-02-02T06:50:43.320Z,44
2019-02-02T06:51:43.304Z,48
2019-02-02T06:52:43.292Z,52
2019-02-02T06:53:43.033Z,56
2019-02-02T06:54:43.321Z,64
2019-02-02T06:55:43.243Z,72
2019-02-02T06:56:43.223Z,80
2019-02-02T06:57:43.208Z,80
2019-02-02T06:58:43.190Z,84
2019-02-02T06:59:43.176Z,92
2019-02-02T07:00:43.180Z,100
2019-02-02T07:01:43.196Z,120
2019-02-02T07:02:43.154Z,140
2019-02-02T07:03:43.109Z,148
2019-02-02T07:04:43.240Z,148
2019-02-02T07:05:43.082Z,156
2019-02-02T07:06:43.080Z,180
2019-02-02T07:07:43.047Z,200
2019-02-02T07:08:43.029Z,212
2019-02-02T07:09:43.016Z,220
2019-02-02T07:10:43.000Z,240
2019-02-02T07:11:42.739Z,248
2019-02-02T07:12:42.969Z,252
2019-02-02T07:13:43.404Z,268
2019-02-02T07:14:42.931Z,272
2019-02-02T07:15:43.040Z,284
2019-02-02T07:16:42.915Z,300
2019-02-02T07:17:42.886Z,312
2019-02-02T07:18:42.871Z,320
2019-02-02T07:19:42.871Z,344
2019-02-02T07:20:42.846Z,348
2019-02-02T07:21:42.818Z,380
2019-02-02T07:22:42.804Z,384
2019-02-02T07:23:42.787Z,408
2019-02-02T07:24:42.772Z,400
2019-02-02T07:25:42.770Z,420
2019-02-02T07:26:42.740Z,432
2019-02-02T07:27:42.727Z,428
2019-02-02T07:28:42.710Z,408
2019-02-02T07:29:42.690Z,408
2019-02-02T07:30:42.686Z,436
2019-02-02T07:31:42.668Z,464
2019-02-02T07:32:42.657Z,484
2019-02-02T07:33:42.629Z,472
2019-02-02T07:34:42.618Z,476
2019-02-02T07:35:42.594Z,552
2019-02-02T07:36:42.580Z,620
2019-02-02T07:37:42.568Z,620
2019-02-02T07:38:42.547Z,660
2019-02-02T07:39:42.535Z,732
2019-02-02T07:40:42.518Z,772
2019-02-02T07:41:43.667Z,724
2019-02-02T07:42:42.497Z,652
2019-02-02T07:43:42.474Z,564
2019-02-02T07:44:42.453Z,520
2019-02-02T07:45:42.446Z,476
2019-02-02T07:46:42.420Z,480
2019-02-02T07:47:42.404Z,488
2019-02-02T07:48:42.392Z,512
2019-02-02T07:49:42.374Z,540
2019-02-02T07:50:42.389Z,584
2019-02-02T07:51:42.340Z,588
2019-02-02T07:52:42.326Z,600
2019-02-02T07:53:42.311Z,624
2019-02-02T07:54:42.299Z,692
2019-02-02T07:55:42.343Z,732
2019-02-02T07:56:42.267Z,800
2019-02-02T07:57:42.250Z,824
2019-02-02T07:58:42.366Z,808
2019-02-02T07:59:42.220Z,796
2019-02-02T08:00:48.213Z,844
2019-02-02T08:01:42.192Z,876
2019-02-02T08:02:42.170Z,896
2019-02-02T08:03:42.156Z,932
2019-02-02T08:04:42.142Z,928
2019-02-02T08:05:42.134Z,876
2019-02-02T08:06:42.122Z,832
2019-02-02T08:07:41.854Z,768
2019-02-02T08:08:42.079Z,736
2019-02-02T08:09:42.064Z,768
2019-02-02T08:10:42.048Z,820
2019-02-02T08:11:42.163Z,928
2019-02-02T08:12:42.020Z,1088
2019-02-02T08:13:42.003Z,1212
2019-02-02T08:14:41.987Z,1372
2019-02-02T08:15:41.968Z,1400
2019-02-02T08:16:41.957Z,1360
2019-02-02T08:17:42.068Z,1236
2019-02-02T08:18:41.930Z,1064
2019-02-02T08:19:41.922Z,976
2019-02-02T08:20:42.017Z,1028
2019-02-02T08:21:41.883Z,1148
2019-02-02T08:22:41.864Z,1220
2019-02-02T08:23:41.958Z,1256
2019-02-02T08:24:43.564Z,1240
2019-02-02T08:25:41.872Z,1220
2019-02-02T08:26:41.933Z,1192
2019-02-02T08:27:41.787Z,1256
2019-02-02T08:28:41.768Z,1332
2019-02-02T08:29:41.756Z,1348
2019-02-02T08:30:54.358Z,1396
2019-02-02T08:31:41.721Z,1448
2019-02-02T08:32:41.709Z,1560
2019-02-02T08:33:41.698Z,1660
2019-02-02T08:34:41.692Z,1868
2019-02-02T08:35:41.672Z,1884
2019-02-02T08:36:41.648Z,1836
2019-02-02T08:37:41.638Z,1776
2019-02-02T08:38:41.623Z,1712
2019-02-02T08:39:41.626Z,1700
2019-02-02T08:40:41.594Z,1672
2019-02-02T08:41:41.574Z,1672
2019-02-02T08:42:41.557Z,1608
2019-02-02T08:43:41.544Z,1576
2019-02-02T08:44:41.287Z,1612
2019-02-02T08:45:41.512Z,1628
2019-02-02T08:46:41.498Z,1860
2019-02-02T08:47:41.484Z,2100
2019-02-02T08:48:41.464Z,2248
2019-02-02T08:49:42.859Z,2204
2019-02-02T08:50:41.200Z,2092
2019-02-02T08:51:41.427Z,1996
2019-02-02T08:52:41.405Z,1900
2019-02-02T08:53:41.426Z,1904
2019-02-02T08:54:41.202Z,1816
2019-02-02T08:55:41.889Z,1828
2019-02-02T08:56:41.665Z,1868
2019-02-02T08:57:41.387Z,1864
2019-02-02T08:58:41.321Z,1748
2019-02-02T08:59:41.298Z,1816
2019-02-02T09:00:41.342Z,2044
2019-02-02T09:01:41.272Z,2112
2019-02-02T09:02:41.340Z,2296
2019-02-02T09:03:41.374Z,2436
2019-02-02T09:04:41.359Z,2528
2019-02-02T09:05:41.378Z,2476
2019-02-02T09:06:46.069Z,2292
2019-02-02T09:07:43.176Z,2136
2019-02-02T09:08:41.169Z,2048
2019-02-02T09:09:41.160Z,1972
2019-02-02T09:10:41.136Z,1908
2019-02-02T09:11:41.119Z,1984
2019-02-02T09:12:41.106Z,1936
2019-02-02T09:13:43.998Z,1876
2019-02-02T09:14:41.072Z,1820
2019-02-02T09:15:41.063Z,1748
2019-02-02T09:16:41.055Z,1784
2019-02-02T09:17:43.340Z,2040
2019-02-02T09:18:41.011Z,2340
2019-02-02T09:19:40.998Z,2596
2019-02-02T09:20:40.984Z,2520
2019-02-02T09:21:40.725Z,2256
2019-02-02T09:22:40.963Z,1964
2019-02-02T09:23:40.940Z,1828
2019-02-02T09:24:40.921Z,1816
2019-02-02T09:25:40.909Z,1912
2019-02-02T09:26:40.906Z,2064
2019-02-02T09:27:40.882Z,2376
2019-02-02T09:28:41.166Z,2696
2019-02-02T09:29:40.852Z,3080
2019-02-02T09:30:40.852Z,3108
2019-02-02T09:31:40.821Z,2844
2019-02-02T09:32:40.813Z,2500
2019-02-02T09:33:40.796Z,2304
2019-02-02T09:34:40.917Z,2240
2019-02-02T09:35:40.882Z,2080
2019-02-02T09:36:40.764Z,2036
2019-02-02T09:37:40.735Z,2056
2019-02-02T09:38:40.717Z,1996
2019-02-02T09:39:40.841Z,1888
2019-02-02T09:40:40.447Z,1880
2019-02-02T09:41:43.110Z,1952
2019-02-02T09:42:40.668Z,1944
2019-02-02T09:43:42.145Z,1836
2019-02-02T09:44:40.630Z,1784
2019-02-02T09:45:40.615Z,1752
2019-02-02T09:46:40.602Z,1824
2019-02-02T09:47:40.587Z,2016
2019-02-02T09:48:40.575Z,2232
2019-02-02T09:49:40.565Z,2312
2019-02-02T09:50:40.546Z,2368
2019-02-02T09:51:40.529Z,2424
2019-02-02T09:52:40.521Z,2476
2019-02-02T09:53:40.504Z,2384
2019-02-02T09:54:40.493Z,2308
2019-02-02T09:55:40.472Z,2172
2019-02-02T09:56:40.460Z,2008
2019-02-02T09:57:41.760Z,1948
2019-02-02T09:58:40.428Z,2000
2019-02-02T09:59:40.417Z,2100
2019-02-02T10:00:40.400Z,2252
2019-02-02T10:01:40.387Z,2308
2019-02-02T10:02:40.412Z,2264
2019-02-02T10:03:40.358Z,2148
2019-02-02T10:04:40.343Z,2124
2019-02-02T10:05:40.336Z,2072
2019-02-02T10:06:40.314Z,2048
2019-02-02T10:07:40.299Z,2248
2019-02-02T10:08:40.295Z,2276
2019-02-02T10:09:40.277Z,2236
2019-02-02T10:10:40.359Z,2104
2019-02-02T10:11:40.243Z,2016
2019-02-02T10:12:40.233Z,1964
2019-02-02T10:13:40.221Z,1968
2019-02-02T10:14:40.197Z,1964
2019-02-02T10:15:40.194Z,1964
2019-02-02T10:16:40.187Z,2028
2019-02-02T10:17:40.154Z,2112
2019-02-02T10:18:40.140Z,2180
2019-02-02T10:19:40.124Z,2196
2019-02-02T10:20:40.120Z,2260
2019-02-02T10:21:40.097Z,2308
2019-02-02T10:22:40.083Z,2324
2019-02-02T10:23:40.072Z,2184
2019-02-02T10:24:40.072Z,2104
2019-02-02T10:25:40.050Z,2016
2019-02-02T10:26:40.031Z,2000
2019-02-02T10:27:40.023Z,2052
2019-02-02T10:28:39.994Z,2060
2019-02-02T10:29:39.741Z,2164
2019-02-02T10:30:39.968Z,2252
2019-02-02T10:31:46.720Z,2316
2019-02-02T10:32:39.939Z,2288
2019-02-02T10:33:39.928Z,2124
2019-02-02T10:34:39.908Z,1896
2019-02-02T10:35:39.894Z,1692
2019-02-02T10:36:39.887Z,1572
2019-02-02T10:37:39.867Z,1544
2019-02-02T10:38:39.857Z,1568
2019-02-02T10:39:39.848Z,1632
2019-02-02T10:40:39.823Z,1660
2019-02-02T10:41:39.816Z,1648
2019-02-02T10:42:39.800Z,1728
2019-02-02T10:43:39.781Z,1996
2019-02-02T10:44:39.769Z,2284
2019-02-02T10:45:39.752Z,2392
2019-02-02T10:46:39.750Z,2356
2019-02-02T10:47:42.643Z,2208
2019-02-02T10:48:39.710Z,1952
2019-02-02T10:49:39.694Z,1728
2019-02-02T10:50:39.678Z,1660
2019-02-02T10:51:39.668Z,1724
2019-02-02T10:52:39.657Z,1840
2019-02-02T10:53:39.638Z,1940
2019-02-02T10:54:39.625Z,2000
2019-02-02T10:55:39.612Z,2036
2019-02-02T10:56:41.259Z,2100
2019-02-02T10:57:39.582Z,2168
2019-02-02T10:58:39.568Z,2208
2019-02-02T10:59:39.558Z,2240
2019-02-02T11:00:39.545Z,2148
2019-02-02T11:01:50.322Z,2016
2019-02-02T11:02:39.519Z,1984
2019-02-02T11:03:39.499Z,2080
2019-02-02T11:04:39.601Z,2228
2019-02-02T11:05:39.684Z,2300
2019-02-02T11:06:39.998Z,2244
2019-02-02T11:07:39.743Z,2124
2019-02-02T11:08:39.399Z,2020
2019-02-02T11:09:39.470Z,2020
2019-02-02T11:10:40.055Z,2124
2019-02-02T11:11:39.534Z,2232
2019-02-02T11:12:39.274Z,2304
2019-02-02T11:13:40.111Z,2324
2019-02-02T11:14:39.522Z,2272
2019-02-02T11:15:39.598Z,2168
2019-02-02T11:16:39.499Z,2116
2019-02-02T11:17:39.609Z,2112
2019-02-02T11:18:39.447Z,2120
2019-02-02T11:19:39.664Z,2048
2019-02-02T11:20:39.595Z,2008
2019-02-02T11:21:39.646Z,2088
2019-02-02T11:22:39.365Z,2140
2019-02-02T11:23:39.566Z,2160
2019-02-02T11:24:39.306Z,2088
2019-02-02T11:25:39.903Z,2052
2019-02-02T11:26:39.327Z,1996
2019-02-02T11:27:39.376Z,1996
2019-02-02T11:28:39.178Z,2016
2019-02-02T11:29:39.185Z,2092
2019-02-02T11:30:39.365Z,2124
2019-02-02T11:31:39.272Z,2188
2019-02-02T11:32:39.085Z,2312
2019-02-02T11:33:39.072Z,2360
2019-02-02T11:34:39.064Z,2416
2019-02-02T11:35:39.051Z,2480
2019-02-02T11:36:39.029Z,2444
2019-02-02T11:37:39.014Z,2296
2019-02-02T11:38:39.000Z,2168
2019-02-02T11:39:38.991Z,2104
2019-02-02T11:40:39.109Z,2064
2019-02-02T11:41:38.965Z,2004
2019-02-02T11:42:41.200Z,1932
2019-02-02T11:43:38.932Z,1892
2019-02-02T11:44:38.916Z,1896
2019-02-02T11:45:38.907Z,1944
2019-02-02T11:46:38.895Z,2004
2019-02-02T11:47:38.875Z,2032
2019-02-02T11:48:38.860Z,2048
2019-02-02T11:49:38.846Z,2072
2019-02-02T11:50:38.835Z,2076
2019-02-02T11:51:38.831Z,2024
2019-02-02T11:52:38.813Z,1936
2019-02-02T11:53:42.210Z,1864
2019-02-02T11:54:38.776Z,1800
2019-02-02T11:55:38.767Z,1752
2019-02-02T11:56:38.744Z,1724
2019-02-02T11:57:38.735Z,1676
2019-02-02T11:58:38.717Z,1616
2019-02-02T11:59:38.703Z,1548
2019-02-02T12:00:38.695Z,1504
2019-02-02T12:01:38.692Z,1528
2019-02-02T12:02:49.014Z,1544
2019-02-02T12:03:38.405Z,1540
2019-02-02T12:04:38.633Z,1552
2019-02-02T12:05:38.724Z,1608
2019-02-02T12:06:38.615Z,1684
2019-02-02T12:07:38.352Z,1800
2019-02-02T12:08:38.587Z,1920
2019-02-02T12:09:38.576Z,1976
2019-02-02T12:10:38.558Z,2016
2019-02-02T12:11:38.537Z,2016
2019-02-02T12:12:38.533Z,2036
2019-02-02T12:13:38.641Z,2144
2019-02-02T12:14:38.490Z,2204
2019-02-02T12:15:38.512Z,2312
2019-02-02T12:16:38.467Z,2400
2019-02-02T12:17:38.450Z,2316
2019-02-02T12:18:38.576Z,2112
2019-02-02T12:19:39.594Z,1960
2019-02-02T12:20:40.540Z,1796
2019-02-02T12:21:38.393Z,1680
2019-02-02T12:22:38.388Z,1560
2019-02-02T12:23:38.368Z,1484
2019-02-02T12:24:38.352Z,1468
2019-02-02T12:25:38.355Z,1452
2019-02-02T12:26:38.321Z,1500
2019-02-02T12:27:38.324Z,1632
2019-02-02T12:28:38.292Z,1708
2019-02-02T12:29:38.287Z,1752
2019-02-02T12:30:38.274Z,1788
2019-02-02T12:31:38.257Z,1844
2019-02-02T12:32:38.244Z,1708
2019-02-02T12:33:38.231Z,1636
2019-02-02T12:34:38.215Z,1592
2019-02-02T12:35:38.218Z,1508
2019-02-02T12:36:38.186Z,1448
2019-02-02T12:37:38.170Z,1524
2019-02-02T12:38:38.161Z,1648
2019-02-02T12:39:38.140Z,1708
2019-02-02T12:40:38.132Z,1712
2019-02-02T12:41:38.123Z,1632
2019-02-02T12:42:38.096Z,1516
2019-02-02T12:43:38.086Z,1440
2019-02-02T12:44:38.073Z,1400
2019-02-02T12:45:38.185Z,1428
2019-02-02T12:46:38.042Z,1508
2019-02-02T12:47:38.032Z,1600
2019-02-02T12:48:39.536Z,1712
2019-02-02T12:49:38.003Z,1784
2019-02-02T12:50:37.986Z,1816
2019-02-02T12:51:37.973Z,1804
2019-02-02T12:52:37.959Z,1772
2019-02-02T12:53:37.943Z,1704
2019-02-02T12:54:37.935Z,1572
2019-02-02T12:55:37.927Z,1436
2019-02-02T12:56:37.899Z,1348
2019-02-02T12:57:37.893Z,1272
2019-02-02T12:58:37.914Z,1240
2019-02-02T12:59:40.518Z,1232
2019-02-02T13:00:37.942Z,1236
2019-02-02T13:01:37.833Z,1204
2019-02-02T13:02:45.251Z,1200
2019-02-02T13:03:37.801Z,1148
2019-02-02T13:04:37.785Z,1140
2019-02-02T13:05:39.127Z,1076
2019-02-02T13:06:37.758Z,1024
2019-02-02T13:07:37.751Z,1032
2019-02-02T13:08:37.728Z,1120
2019-02-02T13:09:37.722Z,1188
2019-02-02T13:10:37.713Z,1268
2019-02-02T13:11:37.691Z,1304
2019-02-02T13:12:37.673Z,1272
2019-02-02T13:13:37.670Z,1260
2019-02-02T13:14:37.648Z,1204
2019-02-02T13:15:37.632Z,1168
2019-02-02T13:16:37.617Z,1148
2019-02-02T13:17:37.606Z,1132
2019-02-02T13:18:37.593Z,1112
2019-02-02T13:19:37.578Z,1128
2019-02-02T13:20:37.560Z,1112
2019-02-02T13:21:37.546Z,1124
2019-02-02T13:22:39.311Z,1176
2019-02-02T13:23:37.517Z,1164
2019-02-02T13:24:37.500Z,1236
2019-02-02T13:25:37.491Z,1292
2019-02-02T13:26:37.474Z,1392
2019-02-02T13:27:37.457Z,1480
2019-02-02T13:28:37.563Z,1536
2019-02-02T13:29:37.547Z,1608
2019-02-02T13:30:37.416Z,1712
2019-02-02T13:31:37.400Z,1800
2019-02-02T13:32:48.968Z,1896
2019-02-02T13:33:37.373Z,1924
2019-02-02T13:34:37.356Z,1860
2019-02-02T13:35:37.349Z,1764
2019-02-02T13:36:37.330Z,1808
2019-02-02T13:37:37.314Z,1932
2019-02-02T13:38:37.311Z,1996
2019-02-02T13:39:37.286Z,2104
2019-02-02T13:40:37.274Z,2212
2019-02-02T13:41:37.255Z,2280
2019-02-02T13:42:37.240Z,2448
2019-02-02T13:43:37.228Z,2624
2019-02-02T13:44:37.235Z,2932
2019-02-02T13:45:37.209Z,3168
2019-02-02T13:46:37.192Z,3212
2019-02-02T13:47:37.167Z,3408
2019-02-02T13:48:37.162Z,3496
2019-02-02T13:49:37.220Z,3632
2019-02-02T13:50:37.243Z,3720
2019-02-02T13:51:37.118Z,3756
2019-02-02T13:52:37.101Z,3552
2019-02-02T13:53:37.087Z,3520
2019-02-02T13:54:37.065Z,3336
2019-02-02T13:55:39.717Z,3160
2019-02-02T13:56:37.040Z,3240
2019-02-02T13:57:37.031Z,3116
2019-02-02T13:58:37.012Z,3020
2019-02-02T13:59:37.029Z,2736
2019-02-02T14:00:36.984Z,2340
2019-02-02T14:01:48.564Z,1984
2019-02-02T14:02:36.960Z,1808